Time;durP1;ratioP1;P1;durP2;ratioP2;P2;SDS_P1;SDS_P2;PMS_P1;PMS_P2;Temp;Humidity;BMP_temperature;BMP_pressure;BME280_temperature;BME280_humidity;BME280_pressure;Samples;Min_cycle;Max_cycle;Signal;HPM_P1;HPM_P2
2023/12/18 05:47:51;;;;;;;19.15;10.73;;;;;;;7.76;100.00;102868.84;5048123;24;20791;-72
2023/12/18 05:50:16;;;;;;;26.48;11.05;;;;;;;7.78;100.00;102863.78;4780328;29;20051;-71
2023/12/18 05:52:41;;;;;;;25.23;11.30;;;;;;;7.77;100.00;102878.03;4778067;29;20093;-71
2023/12/18 05:55:09;;;;;;;17.77;11.05;;;;;;;7.78;100.00;102874.09;4780435;29;20468;-70
2023/12/18 05:57:35;;;;;;;20.27;11.95;;;;;;;7.72;100.00;102870.59;4779552;29;20042;-71
2023/12/18 06:00:00;;;;;;;18.10;10.40;;;;;;;7.79;100.00;102876.56;4780687;29;20431;-72
2023/12/18 06:02:26;;;;;;;21.58;11.63;;;;;;;7.77;100.00;102862.13;4783827;29;20126;-72
2023/12/18 06:04:51;;;;;;;19.45;11.02;;;;;;;7.81;100.00;102874.31;4783243;29;20444;-72
2023/12/18 06:07:16;;;;;;;24.23;12.48;;;;;;;7.77;100.00;102873.28;4781362;29;20560;-70
2023/12/18 06:09:41;;;;;;;21.30;13.52;;;;;;;7.78;100.00;102869.34;4780034;30;20039;-71
2023/12/18 06:12:07;;;;;;;16.92;11.60;;;;;;;7.72;100.00;102873.38;4781941;29;20031;-73
2023/12/18 06:14:32;;;;;;;24.02;11.38;;;;;;;7.74;100.00;102865.53;4779075;29;20035;-73
2023/12/18 06:16:58;;;;;;;24.92;12.77;;;;;;;7.76;100.00;102862.41;4778949;29;20042;-71
2023/12/18 06:19:23;;;;;;;25.08;12.40;;;;;;;7.78;100.00;102863.78;4783145;30;20126;-72
2023/12/18 06:21:48;;;;;;;25.35;14.20;;;;;;;7.75;100.00;102858.81;4779287;29;20042;-71
2023/12/18 06:24:14;;;;;;;22.25;14.10;;;;;;;7.74;100.00;102862.75;4777423;29;20031;-71
2023/12/18 06:26:39;;;;;;;24.67;12.85;;;;;;;7.64;100.00;102866.56;4778847;29;20409;-71
2023/12/18 06:29:04;;;;;;;22.92;12.65;;;;;;;7.67;100.00;102867.91;4779163;30;20027;-72
2023/12/18 06:31:30;;;;;;;21.55;13.75;;;;;;;7.66;100.00;102863.47;4778108;30;20038;-71
2023/12/18 06:33:55;;;;;;;24.40;13.43;;;;;;;7.71;100.00;102863.34;4784430;29;20034;-71
2023/12/18 06:36:20;;;;;;;27.35;15.55;;;;;;;7.61;100.00;102858.84;4783122;29;20100;-70
2023/12/18 06:38:46;;;;;;;28.13;15.02;;;;;;;7.64;100.00;102861.00;4780096;29;20180;-71
2023/12/18 06:41:11;;;;;;;29.45;15.27;;;;;;;7.54;100.00;102859.22;4777953;30;20043;-74
2023/12/18 06:43:38;;;;;;;30.13;14.95;;;;;;;7.62;100.00;102865.22;4781236;29;20841;-70
2023/12/18 06:46:04;;;;;;;28.02;15.25;;;;;;;7.56;100.00;102867.28;4777520;29;20031;-72
2023/12/18 06:48:29;;;;;;;23.23;13.23;;;;;;;7.66;100.00;102867.06;4757340;30;20075;-70
2023/12/18 06:50:55;;;;;;;27.77;12.80;;;;;;;7.68;100.00;102875.13;4739072;30;20556;-71
2023/12/18 06:53:20;;;;;;;27.80;13.15;;;;;;;8.26;100.00;102880.03;4733772;30;20106;-71
2023/12/18 06:55:45;;;;;;;29.10;14.07;;;;;;;7.93;100.00;102885.75;4737481;30;20036;-72
2023/12/18 06:58:11;;;;;;;29.48;15.38;;;;;;;7.85;100.00;102882.88;4740778;30;20046;-74
2023/12/18 07:00:36;;;;;;;26.88;15.45;;;;;;;7.78;100.00;102880.50;4747714;30;20476;-71
2023/12/18 07:03:02;;;;;;;29.05;15.20;;;;;;;7.72;100.00;102877.00;4742712;30;20036;-71
2023/12/18 07:05:29;;;;;;;26.63;15.38;;;;;;;7.71;100.00;102875.31;4754582;30;20045;-73
2023/12/18 07:07:55;;;;;;;32.35;16.90;;;;;;;7.71;100.00;102868.94;4743184;30;20044;-71
2023/12/18 07:10:22;;;;;;;24.65;14.13;;;;;;;7.66;100.00;102869.03;4743441;30;20036;-71
2023/12/18 07:12:47;;;;;;;27.40;13.65;;;;;;;7.63;100.00;102866.84;4756710;30;20443;-72
2023/12/18 07:15:13;;;;;;;28.25;14.13;;;;;;;8.93;100.00;102876.50;4743526;30;20055;-71
2023/12/18 07:17:38;;;;;;;22.73;14.55;;;;;;;8.13;100.00;102880.88;4756754;30;20384;-74
2023/12/18 07:20:05;;;;;;;29.10;14.98;;;;;;;7.93;100.00;102882.97;4746162;30;20032;-72
2023/12/18 07:22:33;;;;;;;28.30;14.18;;;;;;;7.85;100.00;102888.47;4742048;30;20074;-71
2023/12/18 07:24:58;;;;;;;27.67;14.35;;;;;;;7.83;100.00;102890.72;4744595;30;20040;-73
2023/12/18 07:27:23;;;;;;;26.92;14.95;;;;;;;7.98;100.00;102889.59;4743892;30;20040;-72
2023/12/18 07:29:49;;;;;;;31.85;16.13;;;;;;;7.73;100.00;102884.19;4743124;30;20044;-71
2023/12/18 07:32:14;;;;;;;31.75;15.65;;;;;;;7.68;100.00;102881.53;4738814;30;20119;-71
2023/12/18 07:34:39;;;;;;;24.42;14.48;;;;;;;7.78;100.00;102879.66;4744627;30;20132;-72
2023/12/18 07:37:05;;;;;;;32.70;15.52;;;;;;;7.71;100.00;102885.66;4739745;30;20047;-72
2023/12/18 07:39:31;;;;;;;28.85;14.27;;;;;;;7.67;100.00;102884.63;4743375;30;20090;-71
2023/12/18 07:41:56;;;;;;;27.92;14.90;;;;;;;7.70;100.00;102889.59;4741118;30;20462;-71
2023/12/18 07:44:21;;;;;;;28.67;15.07;;;;;;;7.76;100.00;102885.56;4746135;30;20046;-73
2023/12/18 07:46:50;;;;;;;25.52;14.80;;;;;;;7.74;100.00;102885.06;4742779;30;20032;-73
2023/12/18 07:49:16;;;;;;;30.23;15.38;;;;;;;7.74;100.00;102883.09;4754338;30;20121;-71
2023/12/18 07:51:41;;;;;;;33.45;15.38;;;;;;;7.73;100.00;102878.63;4756862;30;20032;-72
2023/12/18 07:54:06;;;;;;;28.88;16.42;;;;;;;7.78;100.00;102874.94;4760038;30;20123;-71
2023/12/18 07:56:33;;;;;;;29.48;15.60;;;;;;;7.77;100.00;102866.88;4760136;30;20139;-73
2023/12/18 07:58:58;;;;;;;32.47;16.83;;;;;;;7.68;100.00;102870.38;4760930;30;20487;-72
2023/12/18 08:01:23;;;;;;;25.90;14.35;;;;;;;7.71;100.00;102872.53;4761858;30;20055;-72
2023/12/18 08:03:49;;;;;;;30.50;14.27;;;;;;;7.69;100.00;102863.66;4770148;30;20551;-72
2023/12/18 08:06:14;;;;;;;27.58;15.00;;;;;;;7.73;100.00;102863.88;4764127;30;20032;-72
2023/12/18 08:08:40;;;;;;;33.03;15.20;;;;;;;7.78;100.00;102862.94;4760076;30;20032;-71
2023/12/18 08:11:05;;;;;;;31.33;13.95;;;;;;;7.79;100.00;102859.84;4759708;30;20036;-72
2023/12/18 08:13:30;;;;;;;30.10;15.07;;;;;;;7.81;100.00;102863.16;4759994;30;20064;-71
2023/12/18 08:15:56;;;;;;;33.65;15.52;;;;;;;7.81;100.00;102868.72;4773120;30;20046;-72
2023/12/18 08:18:22;;;;;;;25.98;14.65;;;;;;;7.76;100.00;102854.91;4761666;30;20412;-73
2023/12/18 08:20:47;;;;;;;27.88;15.88;;;;;;;7.76;100.00;102849.34;4756981;30;20761;-72
2023/12/18 08:23:13;;;;;;;24.80;14.05;;;;;;;7.79;100.00;102847.88;4761392;30;20045;-72
2023/12/18 08:25:38;;;;;;;26.15;15.43;;;;;;;7.73;100.00;102842.38;4761261;30;20038;-72
2023/12/18 08:28:03;;;;;;;31.70;15.65;;;;;;;7.76;100.00;102852.13;4762553;30;20042;-72
2023/12/18 08:30:29;;;;;;;36.95;15.48;;;;;;;7.80;100.00;102838.38;4763931;30;20040;-73
2023/12/18 08:32:54;;;;;;;29.63;16.15;;;;;;;7.87;100.00;102850.75;4758570;30;20039;-72
2023/12/18 08:35:19;;;;;;;30.65;15.07;;;;;;;7.87;100.00;102861.09;4758975;30;20397;-72
2023/12/18 08:37:45;;;;;;;27.83;16.35;;;;;;;7.93;100.00;102857.06;4762912;30;20038;-71
2023/12/18 08:40:10;;;;;;;29.33;15.25;;;;;;;7.96;100.00;102866.75;4760052;30;20035;-72
2023/12/18 08:42:36;;;;;;;30.77;16.65;;;;;;;7.93;100.00;102871.81;4758499;30;20120;-71
2023/12/18 08:45:01;;;;;;;31.25;15.50;;;;;;;7.96;100.00;102863.97;4758502;30;20031;-72
2023/12/18 08:47:26;;;;;;;33.67;14.13;;;;;;;7.97;100.00;102862.81;4762239;30;20064;-72
2023/12/18 08:49:52;;;;;;;28.65;15.82;;;;;;;8.00;100.00;102870.59;4759872;30;20040;-75
2023/12/18 08:52:17;;;;;;;31.35;15.88;;;;;;;7.97;100.00;102880.41;4761506;30;20043;-76
2023/12/18 08:54:43;;;;;;;29.73;15.75;;;;;;;7.99;100.00;102874.50;4760911;30;20041;-75
2023/12/18 08:57:08;;;;;;;29.23;16.60;;;;;;;7.98;100.00;102873.66;4762344;30;20036;-75
2023/12/18 08:59:34;;;;;;;28.67;15.38;;;;;;;7.97;100.00;102866.47;4762806;29;20522;-75
2023/12/18 09:01:59;;;;;;;36.53;16.73;;;;;;;7.98;100.00;102859.72;4759859;30;20043;-75
2023/12/18 09:04:24;;;;;;;34.83;19.10;;;;;;;7.99;100.00;102860.53;4759608;30;20035;-75
2023/12/18 09:06:50;;;;;;;39.08;16.75;;;;;;;7.98;100.00;102851.38;4762183;30;20036;-75
2023/12/18 09:09:15;;;;;;;30.48;16.80;;;;;;;7.99;100.00;102846.59;4763245;30;20062;-75
2023/12/18 09:11:40;;;;;;;34.22;15.90;;;;;;;7.98;100.00;102845.78;4758926;30;20466;-75
2023/12/18 09:14:07;;;;;;;32.92;18.15;;;;;;;8.04;100.00;102854.88;4762570;30;20063;-75
2023/12/18 09:16:32;;;;;;;37.97;16.85;;;;;;;8.03;100.00;102853.22;4762810;30;20036;-75
2023/12/18 09:18:58;;;;;;;38.95;17.25;;;;;;;8.11;100.00;102853.28;4758007;30;20575;-75
2023/12/18 09:21:23;;;;;;;26.45;15.55;;;;;;;8.06;100.00;102849.81;4760483;30;20588;-75
2023/12/18 09:23:49;;;;;;;37.70;17.27;;;;;;;8.08;100.00;102842.78;4760351;30;20027;-75
2023/12/18 09:26:15;;;;;;;29.92;15.80;;;;;;;8.09;100.00;102846.38;4765534;30;20047;-75
2023/12/18 09:28:42;;;;;;;34.75;16.50;;;;;;;8.08;100.00;102844.75;4764924;30;20404;-75
2023/12/18 09:31:07;;;;;;;31.50;14.85;;;;;;;8.17;100.00;102840.06;4763922;30;20055;-75
2023/12/18 09:33:33;;;;;;;31.33;15.88;;;;;;;8.12;100.00;102846.59;4760300;30;20812;-75
2023/12/18 09:36:02;;;;;;;34.33;17.15;;;;;;;8.10;100.00;102846.06;4765671;29;20043;-75
2023/12/18 09:38:28;;;;;;;35.13;17.10;;;;;;;8.13;100.00;102847.41;4763709;30;20032;-75
2023/12/18 09:40:53;;;;;;;32.00;16.50;;;;;;;8.09;100.00;102849.16;4765398;30;20049;-75
2023/12/18 09:43:19;;;;;;;38.70;17.58;;;;;;;8.09;100.00;102851.97;4765550;30;20154;-75
2023/12/18 09:45:48;;;;;;;32.05;16.52;;;;;;;8.10;100.00;102845.25;4762700;30;20053;-75
2023/12/18 09:48:15;;;;;;;36.65;16.27;;;;;;;8.13;100.00;102847.41;4759433;30;20425;-75
2023/12/18 09:50:43;;;;;;;29.33;15.85;;;;;;;8.17;100.00;102848.44;4762746;30;20035;-75
2023/12/18 09:53:12;;;;;;;31.33;17.35;;;;;;;8.22;100.00;102845.56;4768725;30;20036;-75
2023/12/18 09:55:39;;;;;;;38.90;16.05;;;;;;;8.24;100.00;102848.00;4764301;30;20063;-75
2023/12/18 09:58:06;;;;;;;35.45;17.23;;;;;;;8.21;100.00;102849.47;4764136;30;20512;-75
2023/12/18 10:00:31;;;;;;;29.35;15.45;;;;;;;8.25;100.00;102850.50;4763393;30;20053;-75
2023/12/18 10:02:59;;;;;;;35.47;15.63;;;;;;;8.32;100.00;102845.28;4763896;30;20032;-75
2023/12/18 10:05:25;;;;;;;34.17;17.90;;;;;;;8.24;100.00;102848.84;4766516;30;20448;-75
2023/12/18 10:07:54;;;;;;;31.02;17.38;;;;;;;8.28;100.00;102833.09;4763568;30;20568;-75
2023/12/18 10:10:21;;;;;;;33.95;17.52;;;;;;;8.32;100.00;102822.97;4760437;30;20557;-75
2023/12/18 10:12:47;;;;;;;27.67;15.05;;;;;;;8.39;100.00;102827.28;4758801;30;20064;-75
2023/12/18 10:15:12;;;;;;;28.00;14.18;;;;;;;8.37;100.00;102818.41;4762903;30;20096;-75
2023/12/18 10:17:44;;;;;;;32.85;17.65;;;;;;;8.34;100.00;102826.28;4759031;30;20043;-75
2023/12/18 10:20:11;;;;;;;31.30;15.47;;;;;;;8.38;100.00;102826.47;4758076;30;20449;-75
2023/12/18 10:22:38;;;;;;;28.05;15.88;;;;;;;8.34;100.00;102820.69;4762137;30;20125;-74
2023/12/18 10:25:04;;;;;;;33.28;16.38;;;;;;;8.33;100.00;102813.47;4761788;30;20083;-74
2023/12/18 10:27:31;;;;;;;35.22;16.88;;;;;;;8.38;100.00;102812.53;4757775;30;20040;-75
2023/12/18 10:29:57;;;;;;;26.88;15.75;;;;;;;8.32;100.00;102803.44;4765001;30;20040;-74
2023/12/18 10:32:22;;;;;;;29.25;16.55;;;;;;;8.37;100.00;102802.50;4771407;29;20032;-74
2023/12/18 10:34:49;;;;;;;35.60;16.83;;;;;;;8.38;100.00;102803.34;4764053;30;20070;-74
2023/12/18 10:37:18;;;;;;;32.13;16.10;;;;;;;8.38;100.00;102814.50;4762612;30;20159;-74
2023/12/18 10:39:47;;;;;;;36.28;16.85;;;;;;;8.39;100.00;102802.19;4763050;30;20036;-74
2023/12/18 10:42:31;;;;;;;28.10;15.18;;;;;;;8.37;100.00;102801.66;4760839;30;20480;-74
2023/12/18 10:44:59;;;;;;;29.38;15.50;;;;;;;8.37;100.00;102784.91;4761913;30;20036;-75
2023/12/18 10:47:25;;;;;;;34.28;17.50;;;;;;;8.35;100.00;102793.63;4763865;30;20052;-74
2023/12/18 10:49:52;;;;;;;29.30;15.85;;;;;;;8.42;100.00;102787.63;4758232;30;20036;-74
2023/12/18 10:52:19;;;;;;;29.38;15.68;;;;;;;8.41;100.00;102785.97;4763895;30;20023;-75
2023/12/18 10:54:45;;;;;;;28.40;15.82;;;;;;;8.42;100.00;102787.63;4762915;30;20104;-74
2023/12/18 10:57:11;;;;;;;29.35;15.07;;;;;;;8.38;100.00;102784.63;4762908;30;20063;-74
2023/12/18 10:59:38;;;;;;;28.70;17.23;;;;;;;8.43;100.00;102778.09;4756344;30;20097;-75
2023/12/18 11:02:06;;;;;;;24.88;15.35;;;;;;;8.47;100.00;102774.38;4760126;30;20068;-74
2023/12/18 11:04:35;;;;;;;36.88;15.98;;;;;;;8.44;100.00;102780.59;4761159;30;20032;-74
2023/12/18 11:07:01;;;;;;;31.25;16.25;;;;;;;8.43;100.00;102790.13;4765306;30;20679;-74
2023/12/18 11:09:26;;;;;;;28.65;15.70;;;;;;;8.42;100.00;102776.47;4763289;30;20118;-74
2023/12/18 11:11:53;;;;;;;32.95;15.75;;;;;;;8.48;100.00;102780.78;4763616;30;20044;-74
2023/12/18 11:14:45;;;;;;;31.02;15.57;;;;;;;8.53;100.00;102761.94;4765224;30;20043;-75
2023/12/18 11:17:55;;;;;;;32.53;17.88;;;;;;;8.54;100.00;102768.34;4761329;30;20059;-74
2023/12/18 11:20:35;;;;;;;33.70;15.75;;;;;;;8.47;100.00;102756.81;4742508;30;20047;-74
2023/12/18 11:23:01;;;;;;;29.98;14.95;;;;;;;8.46;100.00;102761.56;4761822;30;20039;-74
2023/12/18 11:25:39;;;;;;;28.52;15.20;;;;;;;8.45;100.00;102745.94;4761584;30;20035;-74
2023/12/18 11:28:06;;;;;;;33.85;16.05;;;;;;;8.52;100.00;102748.31;4762909;30;20090;-74
2023/12/18 11:30:39;;;;;;;33.95;16.80;;;;;;;8.55;100.00;102737.31;4763673;30;20042;-74
2023/12/18 11:33:07;;;;;;;25.05;14.95;;;;;;;8.59;100.00;102743.09;4761028;30;20110;-74
2023/12/18 11:35:34;;;;;;;31.98;14.48;;;;;;;8.60;100.00;102733.59;4774802;29;20382;-75
2023/12/18 11:38:14;;;;;;;27.98;14.75;;;;;;;8.62;100.00;102736.88;4760449;30;20120;-74
2023/12/18 11:40:47;;;;;;;35.47;17.67;;;;;;;8.59;100.00;102743.09;4761510;30;20111;-74
2023/12/18 11:43:33;;;;;;;39.72;16.15;;;;;;;8.61;100.00;102734.41;4762403;30;20500;-75
2023/12/18 11:46:00;;;;;;;33.08;16.25;;;;;;;8.61;100.00;102726.03;4763804;30;20038;-74
2023/12/18 11:48:25;;;;;;;28.50;15.07;;;;;;;8.67;100.00;102711.63;4763731;30;20044;-74
2023/12/18 11:50:51;;;;;;;29.17;15.98;;;;;;;8.64;100.00;102715.03;4764943;30;20395;-74
2023/12/18 11:53:22;;;;;;;26.90;14.68;;;;;;;8.61;100.00;102715.69;4761357;30;20488;-74
2023/12/18 11:55:50;;;;;;;25.45;16.23;;;;;;;8.61;100.00;102731.63;4762017;30;20060;-74
2023/12/18 11:58:18;;;;;;;34.47;16.63;;;;;;;8.63;100.00;102741.31;4763545;30;20532;-74
2023/12/18 12:00:44;;;;;;;29.73;16.02;;;;;;;8.62;100.00;102745.28;4762414;30;20059;-74
2023/12/18 12:03:10;;;;;;;32.78;16.30;;;;;;;8.67;100.00;102733.13;4763324;30;20043;-74
2023/12/18 12:05:37;;;;;;;36.83;18.48;;;;;;;8.59;100.00;102731.94;4760775;30;22504;-74
2023/12/18 12:08:02;;;;;;;31.08;15.55;;;;;;;8.65;100.00;102733.44;4762768;30;20042;-74
2023/12/18 12:10:28;;;;;;;24.08;15.80;;;;;;;8.62;100.00;102713.72;4764261;30;20378;-74
2023/12/18 12:12:54;;;;;;;36.88;16.83;;;;;;;8.64;100.00;102729.00;4760217;30;20219;-74
2023/12/18 12:15:24;;;;;;;30.05;15.27;;;;;;;8.68;100.00;102718.84;4763866;30;20036;-74
2023/12/18 12:17:50;;;;;;;26.63;14.77;;;;;;;8.70;100.00;102710.16;4755273;30;20043;-75
2023/12/18 12:20:17;;;;;;;27.92;16.27;;;;;;;8.67;100.00;102708.81;4758522;30;20528;-74
2023/12/18 12:22:43;;;;;;;27.08;14.32;;;;;;;8.67;100.00;102706.03;4756476;30;20103;-74
2023/12/18 12:25:08;;;;;;;23.90;13.15;;;;;;;8.71;100.00;102707.03;4756414;30;20442;-74
2023/12/18 12:27:34;;;;;;;37.83;15.05;;;;;;;8.79;100.00;102697.06;4758168;30;20562;-74
2023/12/18 12:29:59;;;;;;;28.23;14.55;;;;;;;8.71;100.00;102701.47;4761131;30;20062;-75
2023/12/18 12:32:25;;;;;;;24.35;15.48;;;;;;;8.69;100.00;102697.34;4761730;30;20052;-74
2023/12/18 12:34:50;;;;;;;28.33;14.77;;;;;;;8.73;100.00;102701.97;4764088;30;20042;-74
2023/12/18 12:37:16;;;;;;;26.10;15.02;;;;;;;8.72;100.00;102696.69;4777141;29;20032;-74
2023/12/18 12:39:58;;;;;;;31.42;16.13;;;;;;;8.69;100.00;102691.75;4756678;30;20047;-74
2023/12/18 12:42:24;;;;;;;28.40;14.25;;;;;;;8.72;100.00;102683.56;4760078;30;20046;-74
2023/12/18 12:44:49;;;;;;;30.00;15.95;;;;;;;8.72;100.00;102677.97;4763810;30;20035;-74
2023/12/18 12:47:15;;;;;;;27.42;13.73;;;;;;;8.70;100.00;102677.47;4759926;30;20054;-74
2023/12/18 12:49:46;;;;;;;25.70;12.55;;;;;;;8.76;100.00;102675.38;4755486;30;20040;-74
2023/12/18 12:52:15;;;;;;;22.75;13.18;;;;;;;8.75;100.00;102668.97;4760699;30;20036;-74
2023/12/18 12:54:45;;;;;;;33.90;13.20;;;;;;;8.76;100.00;102672.56;4763375;30;20048;-75
2023/12/18 12:57:14;;;;;;;22.15;13.02;;;;;;;8.74;100.00;102675.69;4761457;30;20509;-74
2023/12/18 12:59:56;;;;;;;23.50;12.88;;;;;;;8.73;100.00;102676.84;4772230;30;20036;-75
2023/12/18 13:02:23;;;;;;;29.17;13.48;;;;;;;8.72;100.00;102679.94;4775145;30;20465;-75
2023/12/18 13:04:49;;;;;;;21.65;13.55;;;;;;;8.73;100.00;102671.25;4760790;30;20049;-75
2023/12/18 13:07:19;;;;;;;25.85;13.40;;;;;;;8.71;100.00;102667.13;4757765;30;20562;-74
2023/12/18 13:09:44;;;;;;;26.55;12.82;;;;;;;8.73;100.00;102660.09;4771668;30;20032;-75
2023/12/18 13:12:14;;;;;;;25.98;14.48;;;;;;;8.73;100.00;102637.75;4760289;30;20452;-75
2023/12/18 13:14:44;;;;;;;25.75;13.73;;;;;;;8.75;100.00;102645.81;4755700;30;20171;-75
2023/12/18 13:17:10;;;;;;;24.25;14.25;;;;;;;8.77;100.00;102645.47;4764898;30;20520;-74
2023/12/18 13:19:36;;;;;;;24.17;14.45;;;;;;;8.77;100.00;102648.25;4761650;30;20038;-75
2023/12/18 13:22:02;;;;;;;29.60;12.95;;;;;;;8.78;100.00;102655.50;4762853;30;20032;-75
2023/12/18 13:24:29;;;;;;;29.80;14.48;;;;;;;8.78;100.00;102644.34;4755275;30;20048;-74
2023/12/18 13:26:55;;;;;;;27.80;14.02;;;;;;;8.78;100.00;102633.16;4757925;30;20044;-75
2023/12/18 13:29:20;;;;;;;27.42;15.50;;;;;;;8.75;100.00;102631.84;4757013;30;20058;-75
2023/12/18 13:31:45;;;;;;;34.30;14.00;;;;;;;8.70;100.00;102631.97;4757602;30;20045;-74
2023/12/18 13:34:11;;;;;;;29.90;16.38;;;;;;;8.73;100.00;102626.59;4760662;30;20101;-75
2023/12/18 13:36:36;;;;;;;25.52;13.63;;;;;;;8.81;100.00;102622.16;4757546;30;20563;-76
2023/12/18 13:39:02;;;;;;;33.63;15.77;;;;;;;8.92;100.00;102625.50;4758444;30;20036;-77
2023/12/18 13:41:31;;;;;;;28.92;13.55;;;;;;;8.85;100.00;102622.34;4754940;30;20043;-77
2023/12/18 13:43:56;;;;;;;28.17;14.30;;;;;;;8.84;100.00;102606.75;4761078;30;20039;-77
2023/12/18 13:46:22;;;;;;;33.38;14.30;;;;;;;8.80;100.00;102597.38;4759944;30;20724;-75
2023/12/18 13:48:47;;;;;;;24.80;14.10;;;;;;;8.78;100.00;102613.63;4762466;30;20056;-77
2023/12/18 13:51:12;;;;;;;27.02;14.05;;;;;;;8.75;100.00;102607.53;4757636;30;20035;-77
2023/12/18 13:53:38;;;;;;;30.50;15.48;;;;;;;8.73;100.00;102607.03;4758872;30;20040;-78
2023/12/18 13:56:03;;;;;;;25.75;13.60;;;;;;;8.75;100.00;102601.13;4761301;30;20112;-78
2023/12/18 13:58:29;;;;;;;24.45;15.02;;;;;;;8.78;100.00;102610.84;4755125;29;20040;-77
2023/12/18 14:00:54;;;;;;;28.70;15.25;;;;;;;8.74;100.00;102611.47;4765442;30;20513;-77
2023/12/18 14:03:19;;;;;;;27.83;13.80;;;;;;;8.80;100.00;102600.16;4755560;30;20052;-77
2023/12/18 14:05:45;;;;;;;27.67;14.80;;;;;;;8.75;100.00;102598.34;4757850;30;20039;-77
2023/12/18 14:08:10;;;;;;;29.15;13.77;;;;;;;8.73;100.00;102604.25;4761419;30;20078;-77
2023/12/18 14:10:35;;;;;;;26.17;14.18;;;;;;;8.77;100.00;102589.63;4764569;30;20197;-77
2023/12/18 14:13:01;;;;;;;25.50;13.90;;;;;;;8.77;100.00;102579.31;4756347;30;20786;-78
2023/12/18 14:15:26;;;;;;;31.65;15.32;;;;;;;8.79;100.00;102573.38;4759658;30;20611;-77
2023/12/18 14:17:52;;;;;;;30.23;15.23;;;;;;;8.77;100.00;102564.50;4757210;30;20054;-78
2023/12/18 14:20:17;;;;;;;29.42;15.57;;;;;;;8.77;100.00;102576.50;4756809;30;20142;-77
2023/12/18 14:22:43;;;;;;;26.67;13.88;;;;;;;8.78;100.00;102582.91;4762143;30;20387;-76
2023/12/18 14:25:08;;;;;;;25.90;14.07;;;;;;;8.83;100.00;102558.44;4759228;30;20050;-77
2023/12/18 14:27:33;;;;;;;28.13;14.13;;;;;;;8.82;100.00;102556.81;4760622;30;20050;-77
2023/12/18 14:29:59;;;;;;;27.75;14.73;;;;;;;8.81;100.00;102559.91;4756008;30;20035;-77
2023/12/18 14:32:24;;;;;;;24.90;13.88;;;;;;;9.03;100.00;102562.59;4755293;30;20071;-78
2023/12/18 14:34:49;;;;;;;27.90;14.80;;;;;;;8.91;100.00;102568.00;4753721;30;20501;-78
2023/12/18 14:37:16;;;;;;;26.20;14.10;;;;;;;8.86;100.00;102585.72;4760821;30;21462;-78
2023/12/18 14:39:42;;;;;;;21.17;13.57;;;;;;;9.03;100.00;102593.31;4765571;30;20035;-76
2023/12/18 14:42:08;;;;;;;25.23;13.63;;;;;;;8.92;100.00;102584.44;4758884;30;20535;-77
2023/12/18 14:44:34;;;;;;;23.13;13.18;;;;;;;8.87;100.00;102589.34;4755936;30;20039;-77
2023/12/18 14:47:00;;;;;;;28.13;13.95;;;;;;;8.84;100.00;102601.97;4760112;30;20075;-76
2023/12/18 14:49:26;;;;;;;26.33;12.43;;;;;;;8.97;100.00;102591.81;4762722;30;20078;-78
2023/12/18 14:51:51;;;;;;;33.60;15.52;;;;;;;8.85;100.00;102605.59;4763247;30;20059;-77
2023/12/18 14:54:16;;;;;;;30.25;13.75;;;;;;;8.81;100.00;102597.03;4759666;30;20103;-77
2023/12/18 14:56:42;;;;;;;26.30;13.40;;;;;;;8.87;100.00;102595.72;4760356;30;20408;-76
2023/12/18 14:59:07;;;;;;;25.33;13.55;;;;;;;8.88;100.00;102591.00;4759805;30;20475;-77
2023/12/18 15:01:32;;;;;;;27.55;13.55;;;;;;;8.84;100.00;102590.81;4758244;30;20032;-75
2023/12/18 15:03:58;;;;;;;25.10;12.88;;;;;;;8.82;100.00;102597.88;4756054;30;20042;-76
2023/12/18 15:06:25;;;;;;;24.25;13.63;;;;;;;8.79;100.00;102590.13;4759436;30;20119;-76
2023/12/18 15:08:51;;;;;;;30.60;12.98;;;;;;;8.83;100.00;102597.53;4760465;30;20512;-76
2023/12/18 15:11:16;;;;;;;23.90;13.52;;;;;;;8.80;100.00;102600.16;4761745;30;20056;-77
2023/12/18 15:13:41;;;;;;;25.73;13.23;;;;;;;8.84;100.00;102601.16;4754850;30;20047;-76
2023/12/18 15:16:07;;;;;;;25.52;13.57;;;;;;;8.83;100.00;102593.91;4760541;30;20035;-77
2023/12/18 15:18:32;;;;;;;24.85;13.20;;;;;;;8.92;100.00;102590.00;4760220;30;20034;-76
2023/12/18 15:20:57;;;;;;;25.13;13.75;;;;;;;8.82;100.00;102590.31;4754376;30;20036;-77
2023/12/18 15:23:23;;;;;;;28.70;13.10;;;;;;;8.83;100.00;102579.97;4780628;29;20043;-75
2023/12/18 15:25:48;;;;;;;22.65;12.80;;;;;;;8.81;100.00;102583.06;4764182;30;20036;-77
2023/12/18 15:28:13;;;;;;;27.00;12.90;;;;;;;8.82;100.00;102567.97;4764977;30;20066;-76
2023/12/18 15:30:39;;;;;;;29.13;12.73;;;;;;;8.94;100.00;102570.97;4756985;30;20031;-77
2023/12/18 15:33:04;;;;;;;23.63;12.02;;;;;;;8.91;100.00;102559.59;4756991;30;20067;-76
2023/12/18 15:35:29;;;;;;;27.25;13.88;;;;;;;8.94;100.00;102545.00;4763121;30;20127;-77
2023/12/18 15:37:55;;;;;;;21.70;12.70;;;;;;;9.00;100.00;102543.69;4760764;30;20082;-76
2023/12/18 15:40:20;;;;;;;26.50;13.52;;;;;;;8.97;100.00;102535.97;4764215;30;20039;-76
2023/12/18 15:42:45;;;;;;;21.95;13.25;;;;;;;8.94;100.00;102531.88;4761815;30;20036;-77
2023/12/18 15:45:11;;;;;;;27.70;13.38;;;;;;;8.90;100.00;102541.22;4758402;30;20028;-77
2023/12/18 15:47:36;;;;;;;27.27;14.75;;;;;;;8.92;100.00;102538.94;4759711;30;20186;-76
2023/12/18 15:50:02;;;;;;;52.35;21.65;;;;;;;8.95;100.00;102553.03;4759579;30;20028;-77
2023/12/18 15:52:28;;;;;;;32.58;14.02;;;;;;;8.93;100.00;102558.13;4760454;30;20052;-76
2023/12/18 15:54:53;;;;;;;25.90;13.35;;;;;;;8.89;100.00;102545.16;4761616;30;20042;-75
2023/12/18 15:57:23;;;;;;;25.23;13.20;;;;;;;8.83;100.00;102557.63;4759704;30;20039;-77
2023/12/18 15:59:49;;;;;;;29.15;15.35;;;;;;;8.75;100.00;102546.13;4756094;30;20097;-76
2023/12/18 16:02:14;;;;;;;27.65;16.75;;;;;;;8.81;100.00;102557.94;4757760;30;20797;-76
2023/12/18 16:04:39;;;;;;;21.73;14.43;;;;;;;8.73;100.00;102545.63;4757654;30;20066;-77
2023/12/18 16:07:05;;;;;;;28.08;15.10;;;;;;;8.80;100.00;102539.56;4759677;30;20065;-77
2023/12/18 16:09:30;;;;;;;28.02;15.32;;;;;;;8.78;100.00;102532.66;4765448;30;20036;-77
2023/12/18 16:11:56;;;;;;;28.02;15.77;;;;;;;8.71;100.00;102544.31;4768417;30;20039;-77
2023/12/18 16:14:21;;;;;;;29.77;17.35;;;;;;;8.68;100.00;102534.59;4757715;30;20035;-76
2023/12/18 16:16:47;;;;;;;29.45;16.92;;;;;;;8.67;100.00;102527.38;4756248;30;20059;-79
2023/12/18 16:19:13;;;;;;;28.83;16.83;;;;;;;8.66;100.00;102522.91;4760077;30;20493;-76
2023/12/18 16:21:39;;;;;;;35.65;16.35;;;;;;;8.66;100.00;102520.13;4762075;30;20035;-77
2023/12/18 16:24:06;;;;;;;35.58;16.65;;;;;;;8.65;100.00;102526.88;4776843;29;20031;-75
2023/12/18 16:26:34;;;;;;;29.65;17.55;;;;;;;8.68;100.00;102529.00;4760993;30;20556;-76
2023/12/18 16:29:00;;;;;;;35.97;16.58;;;;;;;8.62;100.00;102535.91;4754218;30;20052;-75
2023/12/18 16:31:25;;;;;;;27.75;17.58;;;;;;;8.66;100.00;102517.34;4753295;30;20052;-75
2023/12/18 16:33:51;;;;;;;29.63;17.05;;;;;;;8.70;100.00;102509.16;4758161;30;20067;-76
2023/12/18 16:36:17;;;;;;;31.35;18.10;;;;;;;8.68;100.00;102506.66;4762442;30;20047;-76
2023/12/18 16:38:47;;;;;;;34.30;17.17;;;;;;;8.62;100.00;102502.41;4760932;30;20036;-76
2023/12/18 16:41:12;;;;;;;28.67;15.63;;;;;;;8.64;100.00;102516.84;4758851;30;20055;-76
2023/12/18 16:43:38;;;;;;;30.10;16.63;;;;;;;8.64;100.00;102511.25;4762473;30;20036;-76
2023/12/18 16:46:03;;;;;;;28.52;16.08;;;;;;;8.68;100.00;102501.09;4759751;30;20040;-75
2023/12/18 16:48:29;;;;;;;32.08;16.27;;;;;;;8.68;100.00;102503.06;4754022;30;20066;-75
2023/12/18 16:50:54;;;;;;;36.05;18.30;;;;;;;8.63;100.00;102500.44;4760419;30;20035;-75
2023/12/18 16:53:20;;;;;;;30.00;16.83;;;;;;;8.58;100.00;102495.00;4758992;30;20470;-76